sensor_id;sensor_type;location;lat;lon;timestamp;P1;P2;P0
47079;PMS5003;33067;49.296;14.470;2023-01-13T00:01:11;3;3;
47079;PMS5003;33067;49.296;14.470;2023-01-13T00:03:35;5;5;
47079;PMS5003;33067;49.296;14.470;2023-01-13T00:06:01;4;3;
47079;PMS5003;33067;49.296;14.470;2023-01-13T00:08:26;4;4;
47079;PMS5003;33067;49.296;14.470;2023-01-13T00:10:51;3;3;
47079;PMS5003;33067;49.296;14.470;2023-01-13T00:13:17;5;5;
47079;PMS5003;33067;49.296;14.470;2023-01-13T00:15:42;5;5;
47079;PMS5003;33067;49.296;14.470;2023-01-13T00:18:07;5;5;
47079;PMS5003;33067;49.296;14.470;2023-01-13T00:20:33;3;3;
47079;PMS5003;33067;49.296;14.470;2023-01-13T00:22:58;5;5;
47079;PMS5003;33067;49.296;14.470;2023-01-13T00:25:23;3;3;
47079;PMS5003;33067;49.296;14.470;2023-01-13T00:27:49;4;4;
47079;PMS5003;33067;49.296;14.470;2023-01-13T00:30:14;9;6;
47079;PMS5003;33067;49.296;14.470;2023-01-13T00:32:39;5;5;
47079;PMS5003;33067;49.296;14.470;2023-01-13T00:35:05;4;4;
47079;PMS5003;33067;49.296;14.470;2023-01-13T00:37:30;4;4;
47079;PMS5003;33067;49.296;14.470;2023-01-13T00:39:55;6;6;
47079;PMS5003;33067;49.296;14.470;2023-01-13T00:42:20;6;6;
47079;PMS5003;33067;49.296;14.470;2023-01-13T00:44:46;6;6;
47079;PMS5003;33067;49.296;14.470;2023-01-13T00:47:11;5;5;
47079;PMS5003;33067;49.296;14.470;2023-01-13T00:49:36;9;8;
47079;PMS5003;33067;49.296;14.470;2023-01-13T00:52:02;3;3;
47079;PMS5003;33067;49.296;14.470;2023-01-13T00:54:27;5;4;
47079;PMS5003;33067;49.296;14.470;2023-01-13T00:56:53;4;4;
47079;PMS5003;33067;49.296;14.470;2023-01-13T00:59:18;5;5;
47079;PMS5003;33067;49.296;14.470;2023-01-13T01:01:43;5;4;
47079;PMS5003;33067;49.296;14.470;2023-01-13T01:04:09;4;4;
47079;PMS5003;33067;49.296;14.470;2023-01-13T01:06:34;3;3;
47079;PMS5003;33067;49.296;14.470;2023-01-13T01:08:59;5;4;
47079;PMS5003;33067;49.296;14.470;2023-01-13T01:11:26;6;6;
47079;PMS5003;33067;49.296;14.470;2023-01-13T01:13:50;6;4;
47079;PMS5003;33067;49.296;14.470;2023-01-13T01:16:16;3;3;
47079;PMS5003;33067;49.296;14.470;2023-01-13T01:18:42;5;3;
47079;PMS5003;33067;49.296;14.470;2023-01-13T01:21:06;4;4;
47079;PMS5003;33067;49.296;14.470;2023-01-13T01:23:32;5;3;
47079;PMS5003;33067;49.296;14.470;2023-01-13T01:25:58;4;4;
47079;PMS5003;33067;49.296;14.470;2023-01-13T01:28:22;3;3;
47079;PMS5003;33067;49.296;14.470;2023-01-13T01:30:48;5;5;
47079;PMS5003;33067;49.296;14.470;2023-01-13T01:33:13;5;5;
47079;PMS5003;33067;49.296;14.470;2023-01-13T01:35:39;5;5;
47079;PMS5003;33067;49.296;14.470;2023-01-13T01:38:04;4;4;
47079;PMS5003;33067;49.296;14.470;2023-01-13T01:40:29;5;4;
47079;PMS5003;33067;49.296;14.470;2023-01-13T01:42:54;3;3;
47079;PMS5003;33067;49.296;14.470;2023-01-13T01:45:20;2;2;
47079;PMS5003;33067;49.296;14.470;2023-01-13T01:47:45;2;2;
47079;PMS5003;33067;49.296;14.470;2023-01-13T01:50:10;2;2;
47079;PMS5003;33067;49.296;14.470;2023-01-13T01:52:36;3;3;
47079;PMS5003;33067;49.296;14.470;2023-01-13T01:55:02;4;4;
47079;PMS5003;33067;49.296;14.470;2023-01-13T01:57:28;4;3;
47079;PMS5003;33067;49.296;14.470;2023-01-13T01:59:52;2;2;
47079;PMS5003;33067;49.296;14.470;2023-01-13T02:02:17;2;2;
47079;PMS5003;33067;49.296;14.470;2023-01-13T02:04:45;5;3;
47079;PMS5003;33067;49.296;14.470;2023-01-13T02:07:08;2;2;
47079;PMS5003;33067;49.296;14.470;2023-01-13T02:09:33;1;1;
47079;PMS5003;33067;49.296;14.470;2023-01-13T02:11:59;3;2;
47079;PMS5003;33067;49.296;14.470;2023-01-13T02:14:25;3;2;
47079;PMS5003;33067;49.296;14.470;2023-01-13T02:16:53;2;2;
47079;PMS5003;33067;49.296;14.470;2023-01-13T02:19:20;3;3;
47079;PMS5003;33067;49.296;14.470;2023-01-13T02:24:12;4;4;
47079;PMS5003;33067;49.296;14.470;2023-01-13T02:29:01;1;1;
47079;PMS5003;33067;49.296;14.470;2023-01-13T02:31:21;4;3;
47079;PMS5003;33067;49.296;14.470;2023-01-13T02:33:51;4;4;
47079;PMS5003;33067;49.296;14.470;2023-01-13T02:36:15;5;3;
47079;PMS5003;33067;49.296;14.470;2023-01-13T02:38:38;2;2;
47079;PMS5003;33067;49.296;14.470;2023-01-13T02:41:04;4;2;
47079;PMS5003;33067;49.296;14.470;2023-01-13T02:43:30;2;2;
47079;PMS5003;33067;49.296;14.470;2023-01-13T02:45:54;2;2;
47079;PMS5003;33067;49.296;14.470;2023-01-13T02:48:19;3;3;
47079;PMS5003;33067;49.296;14.470;2023-01-13T02:50:45;2;2;
47079;PMS5003;33067;49.296;14.470;2023-01-13T02:53:10;2;2;
47079;PMS5003;33067;49.296;14.470;2023-01-13T02:55:36;2;2;
47079;PMS5003;33067;49.296;14.470;2023-01-13T02:58:01;2;2;
47079;PMS5003;33067;49.296;14.470;2023-01-13T03:00:26;4;4;
47079;PMS5003;33067;49.296;14.470;2023-01-13T03:02:51;3;3;
47079;PMS5003;33067;49.296;14.470;2023-01-13T03:05:17;3;3;
47079;PMS5003;33067;49.296;14.470;2023-01-13T03:07:48;2;2;
47079;PMS5003;33067;49.296;14.470;2023-01-13T03:13:01;2;2;
47079;PMS5003;33067;49.296;14.470;2023-01-13T03:15:28;5;5;
47079;PMS5003;33067;49.296;14.470;2023-01-13T03:17:53;5;4;
47079;PMS5003;33067;49.296;14.470;2023-01-13T03:20:19;3;2;
47079;PMS5003;33067;49.296;14.470;2023-01-13T03:22:43;2;2;
47079;PMS5003;33067;49.296;14.470;2023-01-13T03:25:08;2;2;
47079;PMS5003;33067;49.296;14.470;2023-01-13T03:27:34;2;2;
47079;PMS5003;33067;49.296;14.470;2023-01-13T03:29:58;2;2;
47079;PMS5003;33067;49.296;14.470;2023-01-13T03:32:23;2;1;
47079;PMS5003;33067;49.296;14.470;2023-01-13T03:34:49;2;2;
47079;PMS5003;33067;49.296;14.470;2023-01-13T03:37:13;3;3;
47079;PMS5003;33067;49.296;14.470;2023-01-13T03:39:39;2;2;
47079;PMS5003;33067;49.296;14.470;2023-01-13T03:42:05;2;2;
47079;PMS5003;33067;49.296;14.470;2023-01-13T03:44:30;2;2;
47079;PMS5003;33067;49.296;14.470;2023-01-13T03:46:57;2;2;
47079;PMS5003;33067;49.296;14.470;2023-01-13T03:49:21;3;3;
47079;PMS5003;33067;49.296;14.470;2023-01-13T03:51:46;5;3;
47079;PMS5003;33067;49.296;14.470;2023-01-13T03:54:11;2;2;
47079;PMS5003;33067;49.296;14.470;2023-01-13T03:56:37;9;6;
47079;PMS5003;33067;49.296;14.470;2023-01-13T03:59:02;6;4;
47079;PMS5003;33067;49.296;14.470;2023-01-13T04:01:28;5;5;
47079;PMS5003;33067;49.296;14.470;2023-01-13T04:03:53;6;5;
47079;PMS5003;33067;49.296;14.470;2023-01-13T04:06:20;2;2;
47079;PMS5003;33067;49.296;14.470;2023-01-13T04:08:44;2;2;
47079;PMS5003;33067;49.296;14.470;2023-01-13T04:11:09;2;2;
47079;PMS5003;33067;49.296;14.470;2023-01-13T04:13:35;4;2;
47079;PMS5003;33067;49.296;14.470;2023-01-13T04:15:59;3;3;
47079;PMS5003;33067;49.296;14.470;2023-01-13T04:18:25;3;1;
47079;PMS5003;33067;49.296;14.470;2023-01-13T04:20:50;1;1;
47079;PMS5003;33067;49.296;14.470;2023-01-13T04:23:15;3;2;
47079;PMS5003;33067;49.296;14.470;2023-01-13T04:25:41;3;3;
47079;PMS5003;33067;49.296;14.470;2023-01-13T04:28:06;3;3;
47079;PMS5003;33067;49.296;14.470;2023-01-13T04:30:31;4;2;
47079;PMS5003;33067;49.296;14.470;2023-01-13T04:32:56;2;2;
47079;PMS5003;33067;49.296;14.470;2023-01-13T04:35:22;3;3;
47079;PMS5003;33067;49.296;14.470;2023-01-13T04:37:47;4;2;
47079;PMS5003;33067;49.296;14.470;2023-01-13T04:40:13;4;2;
47079;PMS5003;33067;49.296;14.470;2023-01-13T04:42:38;3;3;
47079;PMS5003;33067;49.296;14.470;2023-01-13T04:45:04;3;3;
47079;PMS5003;33067;49.296;14.470;2023-01-13T04:47:29;5;4;
47079;PMS5003;33067;49.296;14.470;2023-01-13T04:49:54;3;3;
47079;PMS5003;33067;49.296;14.470;2023-01-13T04:52:19;3;2;
47079;PMS5003;33067;49.296;14.470;2023-01-13T04:54:45;1;1;
47079;PMS5003;33067;49.296;14.470;2023-01-13T04:57:10;4;2;
47079;PMS5003;33067;49.296;14.470;2023-01-13T04:59:36;2;2;
47079;PMS5003;33067;49.296;14.470;2023-01-13T05:02:01;2;2;
47079;PMS5003;33067;49.296;14.470;2023-01-13T05:04:26;2;2;
47079;PMS5003;33067;49.296;14.470;2023-01-13T05:06:52;3;3;
47079;PMS5003;33067;49.296;14.470;2023-01-13T05:09:17;5;3;
47079;PMS5003;33067;49.296;14.470;2023-01-13T05:11:42;4;3;
47079;PMS5003;33067;49.296;14.470;2023-01-13T05:14:08;2;2;
47079;PMS5003;33067;49.296;14.470;2023-01-13T05:16:33;2;2;
47079;PMS5003;33067;49.296;14.470;2023-01-13T05:18:59;2;2;
47079;PMS5003;33067;49.296;14.470;2023-01-13T05:21:24;2;2;
47079;PMS5003;33067;49.296;14.470;2023-01-13T05:23:49;1;1;
47079;PMS5003;33067;49.296;14.470;2023-01-13T05:26:15;2;2;
47079;PMS5003;33067;49.296;14.470;2023-01-13T05:28:40;1;1;
47079;PMS5003;33067;49.296;14.470;2023-01-13T05:31:05;3;3;
47079;PMS5003;33067;49.296;14.470;2023-01-13T05:33:31;2;2;
47079;PMS5003;33067;49.296;14.470;2023-01-13T05:36:00;1;1;
47079;PMS5003;33067;49.296;14.470;2023-01-13T05:38:22;1;1;
47079;PMS5003;33067;49.296;14.470;2023-01-13T05:40:47;1;1;
47079;PMS5003;33067;49.296;14.470;2023-01-13T05:43:13;2;2;
47079;PMS5003;33067;49.296;14.470;2023-01-13T05:45:38;3;2;
47079;PMS5003;33067;49.296;14.470;2023-01-13T05:48:03;2;2;
47079;PMS5003;33067;49.296;14.470;2023-01-13T05:50:28;3;3;
47079;PMS5003;33067;49.296;14.470;2023-01-13T05:52:54;4;3;
47079;PMS5003;33067;49.296;14.470;2023-01-13T05:55:19;2;2;
47079;PMS5003;33067;49.296;14.470;2023-01-13T05:57:45;3;2;
47079;PMS5003;33067;49.296;14.470;2023-01-13T06:00:10;4;2;
47079;PMS5003;33067;49.296;14.470;2023-01-13T06:02:35;4;4;
47079;PMS5003;33067;49.296;14.470;2023-01-13T06:05:01;5;3;
47079;PMS5003;33067;49.296;14.470;2023-01-13T06:07:26;3;3;
47079;PMS5003;33067;49.296;14.470;2023-01-13T06:09:51;3;3;
47079;PMS5003;33067;49.296;14.470;2023-01-13T06:12:17;4;3;
47079;PMS5003;33067;49.296;14.470;2023-01-13T06:14:42;6;4;
47079;PMS5003;33067;49.296;14.470;2023-01-13T06:17:08;8;5;
47079;PMS5003;33067;49.296;14.470;2023-01-13T06:19:33;8;5;
47079;PMS5003;33067;49.296;14.470;2023-01-13T06:21:58;6;6;
47079;PMS5003;33067;49.296;14.470;2023-01-13T06:24:24;4;4;
47079;PMS5003;33067;49.296;14.470;2023-01-13T06:26:49;3;3;
47079;PMS5003;33067;49.296;14.470;2023-01-13T06:29:14;3;3;
47079;PMS5003;33067;49.296;14.470;2023-01-13T06:31:40;5;5;
47079;PMS5003;33067;49.296;14.470;2023-01-13T06:34:06;2;2;
47079;PMS5003;33067;49.296;14.470;2023-01-13T06:36:33;2;2;
47079;PMS5003;33067;49.296;14.470;2023-01-13T06:38:57;5;5;
47079;PMS5003;33067;49.296;14.470;2023-01-13T06:41:22;3;3;
47079;PMS5003;33067;49.296;14.470;2023-01-13T06:43:47;4;4;
47079;PMS5003;33067;49.296;14.470;2023-01-13T06:46:12;9;5;
47079;PMS5003;33067;49.296;14.470;2023-01-13T06:48:38;5;5;
47079;PMS5003;33067;49.296;14.470;2023-01-13T06:51:03;17;17;
47079;PMS5003;33067;49.296;14.470;2023-01-13T06:53:28;14;13;
47079;PMS5003;33067;49.296;14.470;2023-01-13T06:55:54;12;12;
47079;PMS5003;33067;49.296;14.470;2023-01-13T06:58:19;6;6;
47079;PMS5003;33067;49.296;14.470;2023-01-13T07:00:44;6;6;
47079;PMS5003;33067;49.296;14.470;2023-01-13T07:03:10;3;3;
47079;PMS5003;33067;49.296;14.470;2023-01-13T07:05:34;4;4;
47079;PMS5003;33067;49.296;14.470;2023-01-13T07:08:00;4;4;
47079;PMS5003;33067;49.296;14.470;2023-01-13T07:10:26;2;2;
47079;PMS5003;33067;49.296;14.470;2023-01-13T07:12:51;4;4;
47079;PMS5003;33067;49.296;14.470;2023-01-13T07:15:16;3;3;
47079;PMS5003;33067;49.296;14.470;2023-01-13T07:17:42;5;5;
47079;PMS5003;33067;49.296;14.470;2023-01-13T07:20:08;5;4;
47079;PMS5003;33067;49.296;14.470;2023-01-13T07:22:32;4;4;
47079;PMS5003;33067;49.296;14.470;2023-01-13T07:24:58;3;2;
47079;PMS5003;33067;49.296;14.470;2023-01-13T07:27:23;2;2;
47079;PMS5003;33067;49.296;14.470;2023-01-13T07:29:48;4;4;
47079;PMS5003;33067;49.296;14.470;2023-01-13T07:32:15;9;8;
47079;PMS5003;33067;49.296;14.470;2023-01-13T07:34:39;13;10;
47079;PMS5003;33067;49.296;14.470;2023-01-13T07:37:04;14;13;
47079;PMS5003;33067;49.296;14.470;2023-01-13T07:39:30;10;10;
47079;PMS5003;33067;49.296;14.470;2023-01-13T07:41:55;16;10;
47079;PMS5003;33067;49.296;14.470;2023-01-13T07:44:21;20;16;
47079;PMS5003;33067;49.296;14.470;2023-01-13T07:46:46;7;6;
47079;PMS5003;33067;49.296;14.470;2023-01-13T07:49:11;12;12;
47079;PMS5003;33067;49.296;14.470;2023-01-13T07:51:37;17;12;
47079;PMS5003;33067;49.296;14.470;2023-01-13T07:54:02;12;11;
47079;PMS5003;33067;49.296;14.470;2023-01-13T07:56:29;9;8;
47079;PMS5003;33067;49.296;14.470;2023-01-13T07:58:53;7;7;
47079;PMS5003;33067;49.296;14.470;2023-01-13T08:01:18;9;6;
47079;PMS5003;33067;49.296;14.470;2023-01-13T08:03:43;7;7;
47079;PMS5003;33067;49.296;14.470;2023-01-13T08:06:09;11;8;
47079;PMS5003;33067;49.296;14.470;2023-01-13T08:08:34;7;7;
47079;PMS5003;33067;49.296;14.470;2023-01-13T08:10:59;9;6;
47079;PMS5003;33067;49.296;14.470;2023-01-13T08:13:25;10;10;
47079;PMS5003;33067;49.296;14.470;2023-01-13T08:15:51;5;5;
47079;PMS5003;33067;49.296;14.470;2023-01-13T08:18:15;5;5;
47079;PMS5003;33067;49.296;14.470;2023-01-13T08:20:40;9;6;
47079;PMS5003;33067;49.296;14.470;2023-01-13T08:23:06;8;8;
47079;PMS5003;33067;49.296;14.470;2023-01-13T08:25:31;5;4;
47079;PMS5003;33067;49.296;14.470;2023-01-13T08:27:57;4;3;
47079;PMS5003;33067;49.296;14.470;2023-01-13T08:30:23;3;3;
47079;PMS5003;33067;49.296;14.470;2023-01-13T08:32:48;6;2;
47079;PMS5003;33067;49.296;14.470;2023-01-13T08:35:13;7;5;
47079;PMS5003;33067;49.296;14.470;2023-01-13T08:37:38;9;6;
47079;PMS5003;33067;49.296;14.470;2023-01-13T08:40:03;4;4;
47079;PMS5003;33067;49.296;14.470;2023-01-13T08:42:28;5;5;
47079;PMS5003;33067;49.296;14.470;2023-01-13T08:44:54;4;4;
47079;PMS5003;33067;49.296;14.470;2023-01-13T08:47:20;5;5;
47079;PMS5003;33067;49.296;14.470;2023-01-13T08:49:45;11;10;
47079;PMS5003;33067;49.296;14.470;2023-01-13T08:52:10;10;10;
47079;PMS5003;33067;49.296;14.470;2023-01-13T08:54:36;11;7;
47079;PMS5003;33067;49.296;14.470;2023-01-13T08:57:00;12;12;
47079;PMS5003;33067;49.296;14.470;2023-01-13T08:59:26;14;13;
47079;PMS5003;33067;49.296;14.470;2023-01-13T09:01:51;15;15;
47079;PMS5003;33067;49.296;14.470;2023-01-13T09:04:18;21;21;
47079;PMS5003;33067;49.296;14.470;2023-01-13T09:06:42;114;98;
47079;PMS5003;33067;49.296;14.470;2023-01-13T09:09:07;265;224;
47079;PMS5003;33067;49.296;14.470;2023-01-13T09:11:34;192;174;
47079;PMS5003;33067;49.296;14.470;2023-01-13T09:13:59;295;268;
47079;PMS5003;33067;49.296;14.470;2023-01-13T09:16:26;48;42;
47079;PMS5003;33067;49.296;14.470;2023-01-13T09:18:50;68;64;
47079;PMS5003;33067;49.296;14.470;2023-01-13T09:21:15;45;44;
47079;PMS5003;33067;49.296;14.470;2023-01-13T09:23:41;22;20;
47079;PMS5003;33067;49.296;14.470;2023-01-13T09:26:07;58;51;
47079;PMS5003;33067;49.296;14.470;2023-01-13T09:28:32;23;22;
47079;PMS5003;33067;49.296;14.470;2023-01-13T09:30:59;104;98;
47079;PMS5003;33067;49.296;14.470;2023-01-13T09:33:22;47;45;
47079;PMS5003;33067;49.296;14.470;2023-01-13T09:35:48;22;20;
47079;PMS5003;33067;49.296;14.470;2023-01-13T09:38:13;57;54;
47079;PMS5003;33067;49.296;14.470;2023-01-13T09:40:38;70;64;
47079;PMS5003;33067;49.296;14.470;2023-01-13T09:43:05;13;11;
47079;PMS5003;33067;49.296;14.470;2023-01-13T09:45:29;50;48;
47079;PMS5003;33067;49.296;14.470;2023-01-13T09:47:56;110;105;
47079;PMS5003;33067;49.296;14.470;2023-01-13T09:50:22;67;64;
47079;PMS5003;33067;49.296;14.470;2023-01-13T09:52:44;121;113;
47079;PMS5003;33067;49.296;14.470;2023-01-13T09:55:10;29;27;
47079;PMS5003;33067;49.296;14.470;2023-01-13T09:57:36;59;52;
47079;PMS5003;33067;49.296;14.470;2023-01-13T10:00:01;224;202;
47079;PMS5003;33067;49.296;14.470;2023-01-13T10:02:30;68;59;
47079;PMS5003;33067;49.296;14.470;2023-01-13T10:07:17;616;495;
47079;PMS5003;33067;49.296;14.470;2023-01-13T10:09:43;395;332;
47079;PMS5003;33067;49.296;14.470;2023-01-13T10:12:08;111;95;
47079;PMS5003;33067;49.296;14.470;2023-01-13T10:14:33;512;441;
47079;PMS5003;33067;49.296;14.470;2023-01-13T10:17:02;491;422;
47079;PMS5003;33067;49.296;14.470;2023-01-13T10:19:24;224;200;
47079;PMS5003;33067;49.296;14.470;2023-01-13T10:22:00;503;426;
47079;PMS5003;33067;49.296;14.470;2023-01-13T10:24:15;297;237;
47079;PMS5003;33067;49.296;14.470;2023-01-13T10:26:43;348;314;
47079;PMS5003;33067;49.296;14.470;2023-01-13T10:31:30;1263;1051;
47079;PMS5003;33067;49.296;14.470;2023-01-13T10:33:56;320;280;
47079;PMS5003;33067;49.296;14.470;2023-01-13T10:36:21;111;109;
47079;PMS5003;33067;49.296;14.470;2023-01-13T10:38:47;607;532;
47079;PMS5003;33067;49.296;14.470;2023-01-13T10:41:17;807;668;
47079;PMS5003;33067;49.296;14.470;2023-01-13T10:43:37;758;632;
47079;PMS5003;33067;49.296;14.470;2023-01-13T10:46:03;323;280;
47079;PMS5003;33067;49.296;14.470;2023-01-13T10:48:33;288;251;
47079;PMS5003;33067;49.296;14.470;2023-01-13T10:50:53;545;456;
47079;PMS5003;33067;49.296;14.470;2023-01-13T10:53:21;259;211;
47079;PMS5003;33067;49.296;14.470;2023-01-13T10:58:11;999;781;
47079;PMS5003;33067;49.296;14.470;2023-01-13T11:00:36;822;661;
47079;PMS5003;33067;49.296;14.470;2023-01-13T11:05:27;1525;1169;
47079;PMS5003;33067;49.296;14.470;2023-01-13T11:07:52;895;723;
47079;PMS5003;33067;49.296;14.470;2023-01-13T11:10:20;637;524;
47079;PMS5003;33067;49.296;14.470;2023-01-13T11:12:44;963;765;
47079;PMS5003;33067;49.296;14.470;2023-01-13T11:15:08;864;698;
47079;PMS5003;33067;49.296;14.470;2023-01-13T11:17:34;739;609;
47079;PMS5003;33067;49.296;14.470;2023-01-13T11:20:03;865;697;
47079;PMS5003;33067;49.296;14.470;2023-01-13T11:22:26;638;524;
47079;PMS5003;33067;49.296;14.470;2023-01-13T11:24:52;265;224;
47079;PMS5003;33067;49.296;14.470;2023-01-13T11:27:17;1305;1039;
47079;PMS5003;33067;49.296;14.470;2023-01-13T11:29:44;805;649;
47079;PMS5003;33067;49.296;14.470;2023-01-13T11:32:09;917;745;
47079;PMS5003;33067;49.296;14.470;2023-01-13T11:34:34;401;335;
47079;PMS5003;33067;49.296;14.470;2023-01-13T11:36:59;303;267;
47079;PMS5003;33067;49.296;14.470;2023-01-13T11:39:25;418;360;
47079;PMS5003;33067;49.296;14.470;2023-01-13T11:41:52;212;171;
47079;PMS5003;33067;49.296;14.470;2023-01-13T11:44:16;921;770;
47079;PMS5003;33067;49.296;14.470;2023-01-13T11:46:41;411;360;
47079;PMS5003;33067;49.296;14.470;2023-01-13T11:49:08;322;283;
47079;PMS5003;33067;49.296;14.470;2023-01-13T11:51:33;297;272;
47079;PMS5003;33067;49.296;14.470;2023-01-13T11:54:01;87;74;
47079;PMS5003;33067;49.296;14.470;2023-01-13T11:56:30;254;232;
47079;PMS5003;33067;49.296;14.470;2023-01-13T11:58:54;302;265;
47079;PMS5003;33067;49.296;14.470;2023-01-13T12:01:15;115;105;
47079;PMS5003;33067;49.296;14.470;2023-01-13T12:03:39;53;50;
47079;PMS5003;33067;49.296;14.470;2023-01-13T12:06:08;16;13;
47079;PMS5003;33067;49.296;14.470;2023-01-13T12:08:36;39;38;
47079;PMS5003;33067;49.296;14.470;2023-01-13T12:10:58;9;8;
47079;PMS5003;33067;49.296;14.470;2023-01-13T12:13:24;14;14;
47079;PMS5003;33067;49.296;14.470;2023-01-13T12:15:52;35;34;
47079;PMS5003;33067;49.296;14.470;2023-01-13T12:18:17;73;71;
47079;PMS5003;33067;49.296;14.470;2023-01-13T12:20:39;33;30;
47079;PMS5003;33067;49.296;14.470;2023-01-13T12:23:05;16;16;
47079;PMS5003;33067;49.296;14.470;2023-01-13T12:25:29;11;11;
47079;PMS5003;33067;49.296;14.470;2023-01-13T12:27:56;7;7;
47079;PMS5003;33067;49.296;14.470;2023-01-13T12:30:22;5;4;
47079;PMS5003;33067;49.296;14.470;2023-01-13T12:32:45;5;5;
47079;PMS5003;33067;49.296;14.470;2023-01-13T12:37:37;5;5;
47079;PMS5003;33067;49.296;14.470;2023-01-13T12:40:10;11;8;
47079;PMS5003;33067;49.296;14.470;2023-01-13T12:42:29;7;7;
47079;PMS5003;33067;49.296;14.470;2023-01-13T12:49:42;7;7;
47079;PMS5003;33067;49.296;14.470;2023-01-13T12:52:08;8;8;
47079;PMS5003;33067;49.296;14.470;2023-01-13T12:56:58;5;5;
47079;PMS5003;33067;49.296;14.470;2023-01-13T13:01:49;8;8;
47079;PMS5003;33067;49.296;14.470;2023-01-13T13:04:16;10;10;
47079;PMS5003;33067;49.296;14.470;2023-01-13T13:06:40;13;13;
47079;PMS5003;33067;49.296;14.470;2023-01-13T13:09:05;7;7;
47079;PMS5003;33067;49.296;14.470;2023-01-13T13:11:35;63;60;
47079;PMS5003;33067;49.296;14.470;2023-01-13T13:13:56;26;24;
47079;PMS5003;33067;49.296;14.470;2023-01-13T13:18:48;51;48;
47079;PMS5003;33067;49.296;14.470;2023-01-13T13:21:13;5;5;
47079;PMS5003;33067;49.296;14.470;2023-01-13T13:26:11;27;27;
47079;PMS5003;33067;49.296;14.470;2023-01-13T13:28:31;78;78;
47079;PMS5003;33067;49.296;14.470;2023-01-13T13:31:02;60;55;
47079;PMS5003;33067;49.296;14.470;2023-01-13T13:35:50;31;30;
47079;PMS5003;33067;49.296;14.470;2023-01-13T13:38:17;29;27;
47079;PMS5003;33067;49.296;14.470;2023-01-13T13:40:39;69;61;
47079;PMS5003;33067;49.296;14.470;2023-01-13T13:43:04;47;43;
47079;PMS5003;33067;49.296;14.470;2023-01-13T13:45:28;54;50;
47079;PMS5003;33067;49.296;14.470;2023-01-13T13:47:54;58;54;
47079;PMS5003;33067;49.296;14.470;2023-01-13T13:50:19;59;53;
47079;PMS5003;33067;49.296;14.470;2023-01-13T13:52:47;19;17;
47079;PMS5003;33067;49.296;14.470;2023-01-13T13:55:13;66;58;
47079;PMS5003;33067;49.296;14.470;2023-01-13T13:57:36;109;92;
47079;PMS5003;33067;49.296;14.470;2023-01-13T14:00:06;17;17;
47079;PMS5003;33067;49.296;14.470;2023-01-13T14:02:28;32;24;
47079;PMS5003;33067;49.296;14.470;2023-01-13T14:05:04;51;49;
47079;PMS5003;33067;49.296;14.470;2023-01-13T14:07:18;89;85;
47079;PMS5003;33067;49.296;14.470;2023-01-13T14:09:44;47;40;
47079;PMS5003;33067;49.296;14.470;2023-01-13T14:12:13;125;104;
47079;PMS5003;33067;49.296;14.470;2023-01-13T14:14:33;22;18;
47079;PMS5003;33067;49.296;14.470;2023-01-13T14:16:59;32;30;
47079;PMS5003;33067;49.296;14.470;2023-01-13T14:19:28;16;14;
47079;PMS5003;33067;49.296;14.470;2023-01-13T14:21:50;37;34;
47079;PMS5003;33067;49.296;14.470;2023-01-13T14:24:16;8;6;
47079;PMS5003;33067;49.296;14.470;2023-01-13T14:26:42;36;34;
47079;PMS5003;33067;49.296;14.470;2023-01-13T14:29:08;13;12;
47079;PMS5003;33067;49.296;14.470;2023-01-13T14:31:32;12;10;
47079;PMS5003;33067;49.296;14.470;2023-01-13T14:33:58;25;24;
47079;PMS5003;33067;49.296;14.470;2023-01-13T14:36:23;27;27;
47079;PMS5003;33067;49.296;14.470;2023-01-13T14:38:49;50;48;
47079;PMS5003;33067;49.296;14.470;2023-01-13T14:41:16;44;44;
47079;PMS5003;33067;49.296;14.470;2023-01-13T14:43:41;108;108;
47079;PMS5003;33067;49.296;14.470;2023-01-13T14:46:05;153;153;
47079;PMS5003;33067;49.296;14.470;2023-01-13T14:48:31;89;89;
47079;PMS5003;33067;49.296;14.470;2023-01-13T14:50:55;82;82;
47079;PMS5003;33067;49.296;14.470;2023-01-13T14:53:26;38;38;
47079;PMS5003;33067;49.296;14.470;2023-01-13T14:55:46;30;29;
47079;PMS5003;33067;49.296;14.470;2023-01-13T15:00:36;16;16;
47079;PMS5003;33067;49.296;14.470;2023-01-13T15:03:04;40;38;
47079;PMS5003;33067;49.296;14.470;2023-01-13T15:05:29;49;49;
47079;PMS5003;33067;49.296;14.470;2023-01-13T15:07:53;47;46;
47079;PMS5003;33067;49.296;14.470;2023-01-13T15:10:19;62;61;
47079;PMS5003;33067;49.296;14.470;2023-01-13T15:12:44;15;14;
47079;PMS5003;33067;49.296;14.470;2023-01-13T15:17:35;14;13;
47079;PMS5003;33067;49.296;14.470;2023-01-13T15:20:01;31;28;
47079;PMS5003;33067;49.296;14.470;2023-01-13T15:22:26;9;9;
47079;PMS5003;33067;49.296;14.470;2023-01-13T15:24:52;6;6;
47079;PMS5003;33067;49.296;14.470;2023-01-13T15:27:18;11;10;
47079;PMS5003;33067;49.296;14.470;2023-01-13T15:29:43;13;12;
47079;PMS5003;33067;49.296;14.470;2023-01-13T15:32:08;18;18;
47079;PMS5003;33067;49.296;14.470;2023-01-13T15:34:33;17;17;
47079;PMS5003;33067;49.296;14.470;2023-01-13T15:36:59;220;191;
47079;PMS5003;33067;49.296;14.470;2023-01-13T15:39:24;13;12;
47079;PMS5003;33067;49.296;14.470;2023-01-13T15:41:49;16;16;
47079;PMS5003;33067;49.296;14.470;2023-01-13T15:44:15;43;39;
47079;PMS5003;33067;49.296;14.470;2023-01-13T15:46:40;47;42;
47079;PMS5003;33067;49.296;14.470;2023-01-13T15:49:09;48;41;
47079;PMS5003;33067;49.296;14.470;2023-01-13T15:51:31;109;96;
47079;PMS5003;33067;49.296;14.470;2023-01-13T15:53:56;40;36;
47079;PMS5003;33067;49.296;14.470;2023-01-13T15:56:23;47;47;
47079;PMS5003;33067;49.296;14.470;2023-01-13T15:58:47;13;13;
47079;PMS5003;33067;49.296;14.470;2023-01-13T16:01:13;22;22;
47079;PMS5003;33067;49.296;14.470;2023-01-13T16:03:38;56;49;
47079;PMS5003;33067;49.296;14.470;2023-01-13T16:06:04;61;57;
47079;PMS5003;33067;49.296;14.470;2023-01-13T16:08:29;21;15;
47079;PMS5003;33067;49.296;14.470;2023-01-13T16:10:54;31;29;
47079;PMS5003;33067;49.296;14.470;2023-01-13T16:13:19;24;21;
47079;PMS5003;33067;49.296;14.470;2023-01-13T16:15:45;23;22;
47079;PMS5003;33067;49.296;14.470;2023-01-13T16:18:13;48;44;
47079;PMS5003;33067;49.296;14.470;2023-01-13T16:20:36;24;22;
47079;PMS5003;33067;49.296;14.470;2023-01-13T16:23:01;24;24;
47079;PMS5003;33067;49.296;14.470;2023-01-13T16:25:27;17;17;
47079;PMS5003;33067;49.296;14.470;2023-01-13T16:27:52;11;11;
47079;PMS5003;33067;49.296;14.470;2023-01-13T16:30:20;12;11;
47079;PMS5003;33067;49.296;14.470;2023-01-13T16:32:43;26;25;
47079;PMS5003;33067;49.296;14.470;2023-01-13T16:35:08;24;21;
47079;PMS5003;33067;49.296;14.470;2023-01-13T16:37:33;19;18;
47079;PMS5003;33067;49.296;14.470;2023-01-13T16:39:59;18;16;
47079;PMS5003;33067;49.296;14.470;2023-01-13T16:42:24;14;11;